createdAt,value
2022-08-02T00:00:38.815Z,60.21
2022-08-02T00:01:55.271Z,60.30
2022-08-02T00:03:11.633Z,60.30
2022-08-02T00:04:29.959Z,60.21
2022-08-02T00:05:53.555Z,60.21
2022-08-02T00:07:07.914Z,60.21
2022-08-02T00:08:24.344Z,60.21
2022-08-02T00:09:40.743Z,60.30
2022-08-02T00:10:57.114Z,60.30
2022-08-02T00:12:14.092Z,60.30
2022-08-02T00:13:30.504Z,60.21
2022-08-02T00:14:46.916Z,60.21
2022-08-02T00:16:05.289Z,60.21
2022-08-02T00:17:21.756Z,60.21
2022-08-02T00:18:40.469Z,60.21
2022-08-02T00:19:57.586Z,60.21
2022-08-02T00:21:15.997Z,60.21
2022-08-02T00:22:33.078Z,60.21
2022-08-02T00:24:27.810Z,60.21
2022-08-02T00:25:11.668Z,60.11
2022-08-02T00:26:28.050Z,60.21
2022-08-02T00:27:44.429Z,60.21
2022-08-02T00:29:00.812Z,60.11
2022-08-02T00:30:19.181Z,60.21
2022-08-02T00:31:36.772Z,60.21
2022-08-02T00:32:53.142Z,60.21
2022-08-02T00:34:28.881Z,60.30
2022-08-02T00:35:30.902Z,60.30
2022-08-02T00:36:47.294Z,60.30
2022-08-02T00:38:03.952Z,60.21
2022-08-02T00:39:35.231Z,60.21
2022-08-02T00:40:43.497Z,60.21
2022-08-02T00:42:01.876Z,60.11
2022-08-02T00:43:18.257Z,60.11
2022-08-02T00:44:34.945Z,60.21
2022-08-02T00:46:03.090Z,60.11
2022-08-02T00:47:15.012Z,60.11
2022-08-02T00:48:33.809Z,60.11
2022-08-02T00:49:50.900Z,60.11
2022-08-02T00:51:07.569Z,60.11
2022-08-02T00:52:25.887Z,60.11
2022-08-02T00:53:44.221Z,60.21
2022-08-02T00:55:02.564Z,60.21
2022-08-02T00:56:18.952Z,60.11
2022-08-02T00:57:35.592Z,60.11
2022-08-02T00:58:52.022Z,60.11
2022-08-02T01:00:08.395Z,60.11
2022-08-02T01:01:26.782Z,60.11
2022-08-02T01:02:43.111Z,60.11
2022-08-02T01:04:00.733Z,60.11
2022-08-02T01:05:17.096Z,60.11
2022-08-02T01:06:33.613Z,60.21
2022-08-02T01:07:49.975Z,60.11
2022-08-02T01:09:06.364Z,60.11
2022-08-02T01:10:23.007Z,60.11
2022-08-02T01:11:39.395Z,60.11
2022-08-02T01:12:55.737Z,60.11
2022-08-02T01:14:12.157Z,60.11
2022-08-02T01:15:36.228Z,60.11
2022-08-02T01:16:49.756Z,60.11
2022-08-02T01:18:06.116Z,60.11
2022-08-02T01:19:22.519Z,60.21
2022-08-02T01:20:38.892Z,60.11
2022-08-02T01:21:55.260Z,60.11
2022-08-02T01:23:11.900Z,60.00
2022-08-02T01:24:28.320Z,60.11
2022-08-02T01:25:44.722Z,60.11
2022-08-02T01:27:01.098Z,60.11
2022-08-02T01:28:17.454Z,60.11
2022-08-02T01:29:34.145Z,60.00
2022-08-02T01:30:50.503Z,60.00
2022-08-02T01:32:08.792Z,60.11
2022-08-02T01:33:25.445Z,60.11
2022-08-02T01:34:41.826Z,60.11
2022-08-02T01:35:58.467Z,60.11
2022-08-02T01:37:14.924Z,60.11
2022-08-02T01:38:31.288Z,60.11
2022-08-02T01:39:47.678Z,60.00
2022-08-02T01:41:04.048Z,60.00
2022-08-02T01:42:21.689Z,60.00
2022-08-02T01:43:38.079Z,60.00
2022-08-02T01:44:54.459Z,60.11
2022-08-02T01:46:10.829Z,60.00
2022-08-02T01:47:27.203Z,60.00
2022-08-02T01:48:43.971Z,60.00
2022-08-02T01:50:00.340Z,60.00
2022-08-02T01:51:16.702Z,60.00
2022-08-02T01:52:34.103Z,60.00
2022-08-02T01:53:50.581Z,60.00
2022-08-02T01:55:07.242Z,60.00
2022-08-02T01:56:28.217Z,60.00
2022-08-02T01:57:44.594Z,60.00
2022-08-02T01:59:01.028Z,60.00
2022-08-02T02:00:17.406Z,60.00
2022-08-02T02:01:34.097Z,60.00
2022-08-02T02:02:50.440Z,60.00
2022-08-02T02:04:06.939Z,60.00
2022-08-02T02:05:23.308Z,59.91
2022-08-02T02:06:39.680Z,60.00
2022-08-02T02:07:56.330Z,59.91
2022-08-02T02:09:12.758Z,60.00
2022-08-02T02:10:29.141Z,60.00
2022-08-02T02:12:14.188Z,60.00
2022-08-02T02:13:06.712Z,60.00
2022-08-02T02:14:23.372Z,59.91
2022-08-02T02:15:40.886Z,60.00
2022-08-02T02:16:57.964Z,60.00
2022-08-02T02:18:14.345Z,59.91
2022-08-02T02:19:30.745Z,59.91
2022-08-02T02:20:47.395Z,59.91
2022-08-02T02:22:03.774Z,59.91
2022-08-02T02:23:21.268Z,59.91
2022-08-02T02:24:43.367Z,59.91
2022-08-02T02:26:01.849Z,59.91
2022-08-02T02:27:20.528Z,59.91
2022-08-02T02:28:36.909Z,59.91
2022-08-02T02:29:53.299Z,59.91
2022-08-02T02:31:11.631Z,59.91
2022-08-02T02:32:28.001Z,59.91
2022-08-02T02:33:44.682Z,59.91
2022-08-02T02:35:01.086Z,59.81
2022-08-02T02:36:17.461Z,59.81
2022-08-02T02:37:35.773Z,59.91
2022-08-02T02:38:52.143Z,59.91
2022-08-02T02:40:10.754Z,59.91
2022-08-02T02:41:27.134Z,59.91
2022-08-02T02:42:49.276Z,59.91
2022-08-02T02:44:05.975Z,59.91
2022-08-02T02:45:24.298Z,59.91
2022-08-02T02:46:40.956Z,59.81
2022-08-02T02:47:59.269Z,59.81
2022-08-02T02:49:15.693Z,59.81
2022-08-02T02:50:32.028Z,59.81
2022-08-02T02:51:50.349Z,59.81
2022-08-02T02:53:07.007Z,59.81
2022-08-02T02:54:30.314Z,59.81
2022-08-02T02:56:01.899Z,59.81
2022-08-02T02:57:05.833Z,59.81
2022-08-02T02:58:29.140Z,59.81
2022-08-02T02:59:49.428Z,59.81
2022-08-02T03:01:06.339Z,59.81
2022-08-02T03:02:22.695Z,59.81
2022-08-02T03:03:39.127Z,59.81
2022-08-02T03:04:58.174Z,59.81
2022-08-02T03:06:14.705Z,59.81
2022-08-02T03:07:32.254Z,59.81
2022-08-02T03:08:48.615Z,59.81
2022-08-02T03:10:05.012Z,59.81
2022-08-02T03:11:21.691Z,59.81
2022-08-02T03:12:38.120Z,59.81
2022-08-02T03:13:54.501Z,59.81
2022-08-02T03:15:10.895Z,59.81
2022-08-02T03:16:27.293Z,59.81
2022-08-02T03:17:43.952Z,59.81
2022-08-02T03:19:00.343Z,59.81
2022-08-02T03:20:16.735Z,59.81
2022-08-02T03:21:33.311Z,59.81
2022-08-02T03:22:50.062Z,59.81
2022-08-02T03:24:06.788Z,59.81
2022-08-02T03:25:23.166Z,59.81
2022-08-02T03:26:39.607Z,59.81
2022-08-02T03:27:56.000Z,59.81
2022-08-02T03:29:14.320Z,59.81
2022-08-02T03:30:31.018Z,59.81
2022-08-02T03:31:47.389Z,59.81
2022-08-02T03:33:03.822Z,59.81
2022-08-02T03:34:20.211Z,59.81
2022-08-02T03:35:36.593Z,59.81
2022-08-02T03:36:53.231Z,59.81
2022-08-02T03:38:09.713Z,59.81
2022-08-02T03:39:26.073Z,59.81
2022-08-02T03:40:44.423Z,59.81
2022-08-02T03:42:00.825Z,59.81
2022-08-02T03:43:18.024Z,59.81
2022-08-02T03:44:34.395Z,59.81
2022-08-02T03:45:50.796Z,59.81
2022-08-02T03:47:07.206Z,59.81
2022-08-02T03:48:33.686Z,59.81
2022-08-02T03:49:44.857Z,59.81
2022-08-02T03:51:03.229Z,59.74
2022-08-02T03:52:19.612Z,59.70
2022-08-02T03:53:35.986Z,59.70
2022-08-02T03:54:52.690Z,59.70
2022-08-02T03:56:09.076Z,59.70
2022-08-02T03:57:27.421Z,59.70
2022-08-02T03:58:48.887Z,59.81
2022-08-02T04:00:07.051Z,59.81
2022-08-02T04:01:23.735Z,59.70
2022-08-02T04:02:40.143Z,59.81
2022-08-02T04:03:56.563Z,59.81
2022-08-02T04:05:14.913Z,59.81
2022-08-02T04:06:33.265Z,59.70
2022-08-02T04:08:34.235Z,59.81
2022-08-02T04:09:13.095Z,59.81
2022-08-02T04:10:31.466Z,59.81
2022-08-02T04:11:49.809Z,59.81
2022-08-02T04:13:08.166Z,59.81
2022-08-02T04:14:24.966Z,59.81
2022-08-02T04:15:43.322Z,59.81
2022-08-02T04:16:59.709Z,59.81
2022-08-02T04:18:18.029Z,59.81
2022-08-02T04:19:36.361Z,59.81
2022-08-02T04:20:53.050Z,59.81
2022-08-02T04:22:09.717Z,59.81
2022-08-02T04:23:26.242Z,59.70
2022-08-02T04:24:42.938Z,59.70
2022-08-02T04:26:03.585Z,59.70
2022-08-02T04:27:50.123Z,59.81
2022-08-02T04:28:49.694Z,59.81
2022-08-02T04:30:07.007Z,59.70
2022-08-02T04:31:24.866Z,59.01
2022-08-02T04:32:42.945Z,59.04
2022-08-02T04:34:01.826Z,58.64
2022-08-02T04:35:20.404Z,58.34
2022-08-02T04:36:39.137Z,58.14
2022-08-02T04:38:05.620Z,58.04
2022-08-02T04:39:20.229Z,58.04
2022-08-02T04:40:38.616Z,58.14
2022-08-02T04:41:58.009Z,58.14
2022-08-02T04:43:14.530Z,58.14
2022-08-02T04:44:33.171Z,58.17
2022-08-02T04:45:51.632Z,58.27
2022-08-02T04:47:08.212Z,58.17
2022-08-02T04:48:26.571Z,57.87
2022-08-02T04:49:44.963Z,57.97
2022-08-02T04:51:03.555Z,57.87
2022-08-02T04:52:20.144Z,57.77
2022-08-02T04:53:38.465Z,57.87
2022-08-02T04:54:56.796Z,57.77
2022-08-02T04:56:13.266Z,57.80
2022-08-02T04:57:30.899Z,57.80
2022-08-02T04:58:48.789Z,57.70
2022-08-02T05:00:07.308Z,57.70
2022-08-02T05:01:25.679Z,57.60
2022-08-02T05:02:44.350Z,57.80
2022-08-02T05:04:01.019Z,57.90
2022-08-02T05:05:19.391Z,58.00
2022-08-02T05:06:35.811Z,57.80
2022-08-02T05:07:54.201Z,57.80
2022-08-02T05:09:12.523Z,58.00
2022-08-02T05:10:31.176Z,58.00
2022-08-02T05:11:55.101Z,58.00
2022-08-02T05:13:11.784Z,58.20
2022-08-02T05:14:30.244Z,58.20
2022-08-02T05:15:47.671Z,58.00
2022-08-02T05:17:05.573Z,58.00
2022-08-02T05:18:25.719Z,58.10
2022-08-02T05:19:43.136Z,58.10
2022-08-02T05:21:00.767Z,58.00
2022-08-02T05:22:19.777Z,57.97
2022-08-02T05:23:37.507Z,57.97
2022-08-02T05:24:56.507Z,57.97
2022-08-02T05:26:15.364Z,57.87
2022-08-02T05:27:32.690Z,57.97
2022-08-02T05:28:52.187Z,57.97
2022-08-02T05:30:09.835Z,58.07
2022-08-02T05:31:29.182Z,58.07
2022-08-02T05:32:46.571Z,58.07
2022-08-02T05:34:05.789Z,58.07
2022-08-02T05:35:27.684Z,58.07
2022-08-02T05:36:46.915Z,58.27
2022-08-02T05:38:10.199Z,58.27
2022-08-02T05:39:31.768Z,58.04
2022-08-02T05:40:54.438Z,57.94
2022-08-02T05:42:11.758Z,57.97
2022-08-02T05:43:32.292Z,57.97
2022-08-02T05:44:50.170Z,58.07
2022-08-02T05:46:07.506Z,58.07
2022-08-02T05:47:24.877Z,58.07
2022-08-02T05:48:42.276Z,58.17
2022-08-02T05:49:59.949Z,58.17
2022-08-02T05:51:18.861Z,58.27
2022-08-02T05:52:36.229Z,58.27
2022-08-02T05:53:53.601Z,58.27
2022-08-02T05:55:11.512Z,58.27
2022-08-02T05:56:28.935Z,58.37
2022-08-02T05:57:46.374Z,58.47
2022-08-02T05:59:03.767Z,58.47
2022-08-02T06:00:22.166Z,58.57
2022-08-02T06:01:41.370Z,58.57
2022-08-02T06:03:00.305Z,58.57
2022-08-02T06:04:19.134Z,58.67
2022-08-02T06:05:38.017Z,58.67
2022-08-02T06:06:58.106Z,58.57
2022-08-02T06:08:15.527Z,58.54
2022-08-02T06:09:33.359Z,58.57
2022-08-02T06:10:51.759Z,58.54
2022-08-02T06:12:09.113Z,58.54
2022-08-02T06:13:26.528Z,58.54
2022-08-02T06:14:44.399Z,58.54
2022-08-02T06:16:01.746Z,58.64
2022-08-02T06:17:20.589Z,58.64
2022-08-02T06:18:38.014Z,58.54
2022-08-02T06:19:57.211Z,58.64
2022-08-02T06:22:31.324Z,58.64
2022-08-02T06:22:39.282Z,58.54
2022-08-02T06:23:58.832Z,58.54
2022-08-02T06:28:29.418Z,58.64
2022-08-02T06:29:48.717Z,58.64
2022-08-02T06:31:07.566Z,58.54
2022-08-02T06:32:26.427Z,58.54
2022-08-02T06:33:43.778Z,58.54
2022-08-02T06:35:01.609Z,58.64
2022-08-02T06:36:19.471Z,58.64
2022-08-02T06:37:39.129Z,58.64
2022-08-02T06:38:57.610Z,58.54
2022-08-02T06:40:15.856Z,58.64
2022-08-02T06:41:36.833Z,58.54
2022-08-02T06:42:55.433Z,58.54
2022-08-02T06:44:45.597Z,58.54
2022-08-02T06:45:36.117Z,58.54
2022-08-02T06:47:11.764Z,58.54
2022-08-02T06:48:17.731Z,58.54
2022-08-02T06:49:51.346Z,58.44
2022-08-02T06:50:57.564Z,58.44
2022-08-02T06:52:18.984Z,58.44
2022-08-02T06:53:37.296Z,58.44
2022-08-02T06:54:57.399Z,58.44
2022-08-02T06:56:14.823Z,58.41
2022-08-02T06:57:38.631Z,58.44
2022-08-02T06:59:04.334Z,58.41
2022-08-02T07:00:27.045Z,58.41
2022-08-02T07:01:48.882Z,58.41
2022-08-02T07:03:07.701Z,58.31
2022-08-02T07:04:25.141Z,58.31
2022-08-02T07:05:42.642Z,58.41
2022-08-02T07:07:01.765Z,58.41
2022-08-02T07:08:19.133Z,58.41
2022-08-02T07:09:36.517Z,58.41
2022-08-02T07:10:55.904Z,58.31
2022-08-02T07:12:13.565Z,58.31
2022-08-02T07:13:35.656Z,58.31
2022-08-02T07:14:55.398Z,58.31
2022-08-02T07:16:12.756Z,58.31
2022-08-02T07:17:31.639Z,58.31
2022-08-02T07:18:51.018Z,58.22
2022-08-02T07:20:14.155Z,58.22
2022-08-02T07:21:57.731Z,58.22
2022-08-02T07:22:57.987Z,58.22
2022-08-02T07:24:17.361Z,58.22
2022-08-02T07:26:03.355Z,58.22
2022-08-02T07:27:14.140Z,58.22
2022-08-02T07:28:24.690Z,58.31
2022-08-02T07:29:46.859Z,58.22
2022-08-02T07:31:08.266Z,58.18
2022-08-02T07:32:29.391Z,58.09
2022-08-02T07:33:55.037Z,58.09
2022-08-02T07:35:21.010Z,58.09
2022-08-02T07:36:44.888Z,57.99
2022-08-02T07:38:10.305Z,57.99
2022-08-02T07:39:32.059Z,57.99
2022-08-02T07:40:56.993Z,57.99
2022-08-02T07:42:14.704Z,57.89
2022-08-02T07:43:36.448Z,57.89
2022-08-02T07:44:56.175Z,57.89
2022-08-02T07:46:14.781Z,57.79
2022-08-02T07:47:34.358Z,57.99
2022-08-02T07:48:55.955Z,57.99
2022-08-02T07:50:28.622Z,57.89
2022-08-02T07:51:46.556Z,57.89
2022-08-02T07:53:04.696Z,57.89
2022-08-02T07:54:24.375Z,57.89
2022-08-02T07:55:43.898Z,57.89
2022-08-02T07:57:00.462Z,57.89
2022-08-02T07:58:20.705Z,57.69
2022-08-02T08:01:35.027Z,57.69
2022-08-02T08:02:58.885Z,57.69
2022-08-02T08:04:17.986Z,57.79
2022-08-02T08:05:39.145Z,57.79
2022-08-02T08:07:01.382Z,57.69
2022-08-02T08:08:18.866Z,57.79
2022-08-02T08:09:38.198Z,57.69
2022-08-02T08:10:57.068Z,57.59
2022-08-02T08:12:17.743Z,57.29
2022-08-02T08:13:39.895Z,57.49
2022-08-02T08:14:57.923Z,57.49
2022-08-02T08:16:17.633Z,57.59
2022-08-02T08:17:38.181Z,57.59
2022-08-02T08:18:56.351Z,57.39
2022-08-02T08:20:18.711Z,57.49
2022-08-02T08:21:37.792Z,57.39
2022-08-02T08:22:57.438Z,57.09
2022-08-02T08:26:15.547Z,57.29
2022-08-02T08:27:40.081Z,57.29
2022-08-02T08:29:03.037Z,57.29
2022-08-02T08:30:27.869Z,57.29
2022-08-02T08:31:47.070Z,57.39
2022-08-02T08:33:14.293Z,57.19
2022-08-02T08:34:33.202Z,56.99
2022-08-02T08:35:54.252Z,57.19
2022-08-02T08:37:17.137Z,56.99
2022-08-02T08:40:25.800Z,57.09
2022-08-02T08:41:43.622Z,56.99
2022-08-02T08:43:09.928Z,56.99
2022-08-02T08:44:33.732Z,56.99
2022-08-02T08:47:44.094Z,57.19
2022-08-02T08:49:04.219Z,57.29
2022-08-02T08:50:26.075Z,57.39
2022-08-02T08:53:38.191Z,57.39
2022-08-02T08:54:59.407Z,57.39
2022-08-02T08:56:20.168Z,57.39
2022-08-02T08:57:39.146Z,57.39
2022-08-02T08:59:00.246Z,57.39
2022-08-02T09:04:01.067Z,57.39
2022-08-02T09:05:18.799Z,57.49
2022-08-02T09:06:36.799Z,57.39
2022-08-02T09:07:54.851Z,57.49
2022-08-02T09:09:27.353Z,57.39
2022-08-02T09:10:44.818Z,57.39
2022-08-02T09:12:02.285Z,57.39
2022-08-02T09:13:38.418Z,57.39
2022-08-02T09:14:45.034Z,57.39
2022-08-02T09:16:11.105Z,57.39
2022-08-02T09:17:28.716Z,57.39
2022-08-02T09:18:49.361Z,57.49
2022-08-02T09:20:05.895Z,57.49
2022-08-02T09:23:12.990Z,57.49
2022-08-02T09:28:16.043Z,57.69
2022-08-02T09:29:48.633Z,57.59
2022-08-02T09:32:48.406Z,57.49
2022-08-02T09:34:07.738Z,57.49
2022-08-02T09:35:27.560Z,57.39
2022-08-02T09:36:55.951Z,57.39
2022-08-02T09:40:05.552Z,57.39
2022-08-02T09:46:56.816Z,57.49
2022-08-02T09:48:14.245Z,57.49
2022-08-02T09:49:32.781Z,57.49
2022-08-02T09:50:55.354Z,57.49
2022-08-02T09:52:13.662Z,57.49
2022-08-02T09:53:32.410Z,57.49
2022-08-02T09:54:50.706Z,57.49
2022-08-02T09:56:29.232Z,57.49
2022-08-02T09:57:33.890Z,57.49
2022-08-02T09:58:52.239Z,57.59
2022-08-02T10:00:14.220Z,57.49
2022-08-02T10:01:37.445Z,57.49
2022-08-02T10:02:54.001Z,57.49
2022-08-02T10:04:20.555Z,57.59
2022-08-02T10:05:56.085Z,57.59
2022-08-02T10:07:10.925Z,57.59
2022-08-02T10:08:29.963Z,57.49
2022-08-02T10:09:50.936Z,57.49
2022-08-02T10:11:09.531Z,57.59
2022-08-02T10:12:28.607Z,57.49
2022-08-02T10:13:47.737Z,57.49
2022-08-02T10:15:07.676Z,57.59
2022-08-02T10:16:31.302Z,57.59
2022-08-02T10:17:50.529Z,57.59
2022-08-02T10:19:14.129Z,57.59
2022-08-02T10:20:31.449Z,57.59
2022-08-02T10:21:50.603Z,57.59
2022-08-02T10:23:09.550Z,57.59
2022-08-02T10:24:27.391Z,57.59
2022-08-02T10:25:46.282Z,57.59
2022-08-02T10:27:04.620Z,57.59
2022-08-02T10:28:23.862Z,57.59
2022-08-02T10:29:53.350Z,57.59
2022-08-02T10:31:04.813Z,57.69
2022-08-02T10:32:22.800Z,57.59
2022-08-02T10:33:40.162Z,57.59
2022-08-02T10:35:18.734Z,57.59
2022-08-02T10:36:22.888Z,57.59
2022-08-02T10:37:41.975Z,57.59
2022-08-02T10:38:59.285Z,57.59
2022-08-02T10:40:16.637Z,57.46
2022-08-02T10:41:34.227Z,57.59
2022-08-02T10:42:53.158Z,57.56
2022-08-02T10:44:24.342Z,57.59
2022-08-02T10:45:33.202Z,57.59
2022-08-02T10:46:50.950Z,57.69
2022-08-02T10:48:09.418Z,57.56
2022-08-02T10:49:43.951Z,57.59
2022-08-02T10:50:50.681Z,57.56
2022-08-02T10:52:09.642Z,57.66
2022-08-02T10:53:29.122Z,57.59
2022-08-02T10:54:47.521Z,57.56
2022-08-02T10:56:06.317Z,57.66
2022-08-02T10:57:27.834Z,57.69
2022-08-02T10:58:46.237Z,57.66
2022-08-02T11:00:03.543Z,57.56
2022-08-02T11:01:20.973Z,57.66
2022-08-02T11:02:40.145Z,57.56
2022-08-02T11:03:59.247Z,57.59
2022-08-02T11:05:16.607Z,57.66
2022-08-02T11:06:35.477Z,57.66
2022-08-02T11:07:52.860Z,57.66
2022-08-02T11:09:12.526Z,57.66
2022-08-02T11:10:32.101Z,57.66
2022-08-02T11:11:53.939Z,57.66
2022-08-02T11:13:16.051Z,57.56
2022-08-02T11:14:33.360Z,57.56
2022-08-02T11:15:52.487Z,57.66
2022-08-02T11:17:09.809Z,57.66
2022-08-02T11:18:27.177Z,57.66
2022-08-02T11:19:46.017Z,57.66
2022-08-02T11:21:05.304Z,57.66
2022-08-02T11:22:25.994Z,57.66
2022-08-02T11:23:45.004Z,57.66
2022-08-02T11:25:03.276Z,57.66
2022-08-02T11:26:20.647Z,57.66
2022-08-02T11:27:39.031Z,57.76
2022-08-02T11:28:56.417Z,57.66
2022-08-02T11:30:15.328Z,57.66
2022-08-02T11:31:34.166Z,57.66
2022-08-02T11:32:52.650Z,57.66
2022-08-02T11:34:11.780Z,57.76
2022-08-02T11:35:33.960Z,57.76
2022-08-02T11:36:52.748Z,57.76
2022-08-02T11:38:14.244Z,57.76
2022-08-02T11:39:33.569Z,57.66
2022-08-02T11:40:57.409Z,57.66
2022-08-02T11:42:15.813Z,57.66
2022-08-02T11:43:33.628Z,57.66
2022-08-02T11:44:52.116Z,57.66
2022-08-02T11:46:10.996Z,57.66
2022-08-02T11:47:30.857Z,57.66
2022-08-02T11:48:49.707Z,57.66
2022-08-02T11:50:09.109Z,57.66
2022-08-02T11:51:26.407Z,57.66
2022-08-02T11:52:45.621Z,57.66
2022-08-02T11:54:02.990Z,57.76
2022-08-02T11:55:20.332Z,57.76
2022-08-02T11:56:37.680Z,57.76
2022-08-02T11:58:04.196Z,57.76
2022-08-02T11:59:19.780Z,57.76
2022-08-02T12:00:38.641Z,57.66
2022-08-02T12:01:57.452Z,57.66
2022-08-02T12:03:19.522Z,57.66
2022-08-02T12:04:38.422Z,57.66
2022-08-02T12:06:06.419Z,57.76
2022-08-02T12:07:18.193Z,57.76
2022-08-02T12:08:41.894Z,57.76
2022-08-02T12:10:05.031Z,57.76
2022-08-02T12:11:24.237Z,57.76
2022-08-02T12:12:43.187Z,57.66
2022-08-02T12:14:02.042Z,57.66
2022-08-02T12:15:21.257Z,57.66
2022-08-02T12:16:39.507Z,57.66
2022-08-02T12:19:54.047Z,57.66
2022-08-02T12:21:13.453Z,57.66
2022-08-02T12:22:32.302Z,57.66
2022-08-02T12:23:59.875Z,57.66
2022-08-02T12:25:14.805Z,57.66
2022-08-02T12:26:37.036Z,57.76
2022-08-02T12:27:55.888Z,57.66
2022-08-02T12:29:14.275Z,57.66
2022-08-02T12:30:34.248Z,57.66
2022-08-02T12:33:42.126Z,57.66
2022-08-02T12:35:01.065Z,57.56
2022-08-02T12:36:18.459Z,57.66
2022-08-02T12:37:37.636Z,57.56
2022-08-02T12:38:56.497Z,57.56
2022-08-02T12:40:14.388Z,57.66
2022-08-02T12:41:32.812Z,57.56
2022-08-02T12:42:52.349Z,57.56
2022-08-02T12:44:10.139Z,57.66
2022-08-02T12:45:40.444Z,57.66
2022-08-02T12:46:51.750Z,57.56
2022-08-02T12:48:11.696Z,57.56
2022-08-02T12:49:30.602Z,57.66
2022-08-02T12:50:53.353Z,57.66
2022-08-02T12:52:11.784Z,57.66
2022-08-02T12:53:29.780Z,57.56
2022-08-02T12:54:48.989Z,57.66
2022-08-02T12:56:09.305Z,57.66
2022-08-02T12:57:27.292Z,57.66
2022-08-02T12:58:46.456Z,57.66
2022-08-02T13:00:03.866Z,57.66
2022-08-02T13:01:22.774Z,57.66
2022-08-02T13:02:39.497Z,57.66
2022-08-02T13:04:09.606Z,57.66
2022-08-02T13:05:20.568Z,57.66
2022-08-02T13:06:45.743Z,57.66
2022-08-02T13:07:59.306Z,57.66
2022-08-02T13:09:18.906Z,57.56
2022-08-02T13:10:37.953Z,57.66
2022-08-02T13:11:55.322Z,57.56
2022-08-02T13:13:14.193Z,57.66
2022-08-02T13:14:35.738Z,57.66
2022-08-02T13:15:55.784Z,57.66
2022-08-02T13:17:18.335Z,57.66
2022-08-02T13:18:36.538Z,57.66
2022-08-02T13:19:55.456Z,57.66
2022-08-02T13:21:19.718Z,57.66
2022-08-02T13:22:37.361Z,57.66
2022-08-02T13:24:01.054Z,57.66
2022-08-02T13:25:23.273Z,57.76
2022-08-02T13:26:42.138Z,57.76
2022-08-02T13:27:59.447Z,57.76
2022-08-02T13:29:18.150Z,57.66
2022-08-02T13:30:35.508Z,57.66
2022-08-02T13:31:52.880Z,57.76
2022-08-02T13:33:11.786Z,57.76
2022-08-02T13:34:30.741Z,57.76
2022-08-02T13:35:49.830Z,57.76
2022-08-02T13:37:07.200Z,57.76
2022-08-02T13:38:27.111Z,57.76
2022-08-02T13:40:11.754Z,57.66
2022-08-02T13:41:11.382Z,57.76
2022-08-02T13:42:30.225Z,57.76
2022-08-02T13:43:55.305Z,57.73
2022-08-02T13:45:13.752Z,57.76
2022-08-02T13:46:31.796Z,57.73
2022-08-02T13:48:04.057Z,57.66
2022-08-02T13:49:18.451Z,57.64
2022-08-02T13:50:35.727Z,57.76
2022-08-02T13:51:54.662Z,57.64
2022-08-02T13:53:12.010Z,57.64
2022-08-02T13:54:31.198Z,57.64
2022-08-02T13:55:53.397Z,57.64
2022-08-02T13:57:13.189Z,57.73
2022-08-02T13:58:31.673Z,57.64
2022-08-02T13:59:56.445Z,57.64
2022-08-02T14:01:13.674Z,57.64
2022-08-02T14:02:32.033Z,57.73
2022-08-02T14:04:08.290Z,57.73
2022-08-02T14:05:15.846Z,57.73
2022-08-02T14:06:34.786Z,57.73
2022-08-02T14:07:52.125Z,57.64
2022-08-02T14:09:09.815Z,57.73
2022-08-02T14:10:31.387Z,57.73
2022-08-02T14:11:51.118Z,57.64
2022-08-02T14:13:09.976Z,57.83
2022-08-02T14:14:27.338Z,57.83
2022-08-02T14:15:49.631Z,57.73
2022-08-02T14:17:08.621Z,57.83
2022-08-02T14:18:26.390Z,57.73
2022-08-02T14:19:43.081Z,57.73
2022-08-02T14:21:00.932Z,57.73
2022-08-02T14:22:17.486Z,57.64
2022-08-02T14:23:49.267Z,57.73
2022-08-02T14:25:09.030Z,57.73
2022-08-02T14:26:27.338Z,57.73
2022-08-02T14:27:46.587Z,57.73
2022-08-02T14:29:03.956Z,57.73
2022-08-02T14:30:23.116Z,57.83
2022-08-02T14:31:44.671Z,57.83
2022-08-02T14:33:02.452Z,57.83
2022-08-02T14:34:19.791Z,57.73
2022-08-02T14:35:38.737Z,57.83
2022-08-02T14:36:56.338Z,57.83
2022-08-02T14:38:14.751Z,57.83
2022-08-02T14:39:42.880Z,57.83
2022-08-02T14:40:55.250Z,57.83
2022-08-02T14:42:13.053Z,57.83
2022-08-02T14:43:31.783Z,57.83
2022-08-02T14:44:49.104Z,57.83
2022-08-02T14:46:08.043Z,57.93
2022-08-02T14:47:27.052Z,57.83
2022-08-02T14:48:44.393Z,57.83
2022-08-02T14:50:02.177Z,57.93
2022-08-02T14:51:19.634Z,57.93
2022-08-02T14:52:38.046Z,57.83
2022-08-02T14:54:02.919Z,57.93
2022-08-02T14:55:18.697Z,57.83
2022-08-02T14:56:37.057Z,57.83
2022-08-02T14:57:55.381Z,57.83
2022-08-02T14:59:13.738Z,57.93
2022-08-02T15:00:30.201Z,57.93
2022-08-02T15:01:47.550Z,57.93
2022-08-02T15:03:06.180Z,57.93
2022-08-02T15:04:27.491Z,57.93
2022-08-02T15:05:45.992Z,57.93
2022-08-02T15:07:05.699Z,57.83
2022-08-02T15:08:22.162Z,57.93
2022-08-02T15:09:41.114Z,57.93
2022-08-02T15:10:59.445Z,57.93
2022-08-02T15:12:18.036Z,57.93
2022-08-02T15:13:40.926Z,57.93
2022-08-02T15:14:59.426Z,57.93
2022-08-02T15:16:17.076Z,57.93
2022-08-02T15:17:36.175Z,57.93
2022-08-02T15:18:54.048Z,57.93
2022-08-02T15:20:24.811Z,57.93
2022-08-02T15:21:41.672Z,58.03
2022-08-02T15:23:00.679Z,58.03
2022-08-02T15:24:17.999Z,58.03
2022-08-02T15:25:37.319Z,58.13
2022-08-02T15:26:57.822Z,58.23
2022-08-02T15:28:16.629Z,58.23
2022-08-02T15:29:33.043Z,58.43
2022-08-02T15:30:51.403Z,58.23
2022-08-02T15:32:10.256Z,58.03
2022-08-02T15:33:27.893Z,58.03
2022-08-02T15:34:45.497Z,58.03
2022-08-02T15:36:04.966Z,58.03
2022-08-02T15:37:23.343Z,58.03
2022-08-02T15:38:43.765Z,58.03
2022-08-02T15:40:01.176Z,58.13
2022-08-02T15:41:19.537Z,58.13
2022-08-02T15:42:38.071Z,58.13
2022-08-02T15:44:01.057Z,58.13
2022-08-02T15:45:19.609Z,58.13
2022-08-02T15:46:38.321Z,58.13
2022-08-02T15:47:56.731Z,58.23
2022-08-02T15:49:15.206Z,58.23
2022-08-02T15:50:33.580Z,58.23
2022-08-02T15:51:51.961Z,58.23
2022-08-02T15:53:10.572Z,58.23
2022-08-02T15:54:28.993Z,58.23
2022-08-02T15:55:52.717Z,58.23
2022-08-02T15:57:10.515Z,58.13
2022-08-02T15:58:28.374Z,58.23
2022-08-02T15:59:47.477Z,58.23
2022-08-02T16:01:04.851Z,58.23
2022-08-02T16:02:23.730Z,58.23
2022-08-02T16:03:41.266Z,58.26
2022-08-02T16:04:59.637Z,58.26
2022-08-02T16:06:17.991Z,58.23
2022-08-02T16:07:40.776Z,58.26
2022-08-02T16:08:59.400Z,58.23
2022-08-02T16:10:15.842Z,58.23
2022-08-02T16:11:32.490Z,58.26
2022-08-02T16:12:50.833Z,58.26
2022-08-02T16:14:09.201Z,58.26
2022-08-02T16:15:27.602Z,58.23
2022-08-02T16:16:45.964Z,58.26
2022-08-02T16:18:02.616Z,58.26
2022-08-02T16:19:46.776Z,58.26
2022-08-02T16:20:44.224Z,58.26
2022-08-02T16:22:02.146Z,58.23
2022-08-02T16:23:18.637Z,58.26
2022-08-02T16:24:39.948Z,58.26
2022-08-02T16:25:58.487Z,58.26
2022-08-02T16:27:16.979Z,58.26
2022-08-02T16:28:33.498Z,58.26
2022-08-02T16:29:51.899Z,58.26
2022-08-02T16:31:11.754Z,58.26
2022-08-02T16:32:30.160Z,58.26
2022-08-02T16:33:49.037Z,58.26
2022-08-02T16:35:07.672Z,58.26
2022-08-02T16:36:26.791Z,58.26
2022-08-02T16:37:52.510Z,58.36
2022-08-02T16:39:07.665Z,58.26
2022-08-02T16:40:24.077Z,58.26
2022-08-02T16:41:51.090Z,58.26
2022-08-02T16:43:09.144Z,58.36
2022-08-02T16:44:30.050Z,58.36
2022-08-02T16:45:46.850Z,58.36
2022-08-02T16:47:05.940Z,58.36
2022-08-02T16:48:23.348Z,58.36
2022-08-02T16:50:06.612Z,58.36
2022-08-02T16:51:03.134Z,58.36
2022-08-02T16:52:22.537Z,58.36
2022-08-02T16:54:00.605Z,58.36
2022-08-02T16:55:07.119Z,58.36
2022-08-02T16:56:25.548Z,58.36
2022-08-02T16:57:50.002Z,58.36
2022-08-02T16:59:06.572Z,58.36
2022-08-02T17:00:27.990Z,58.36
2022-08-02T17:02:02.984Z,58.36
2022-08-02T17:03:13.201Z,58.36
2022-08-02T17:04:33.551Z,58.36
2022-08-02T17:05:56.632Z,58.36
2022-08-02T17:08:07.484Z,58.36
2022-08-02T17:08:36.747Z,58.36
2022-08-02T17:10:01.782Z,58.36
2022-08-02T17:11:21.257Z,58.36
2022-08-02T17:12:44.458Z,58.36
2022-08-02T17:14:07.677Z,58.36
2022-08-02T17:16:15.700Z,58.36
2022-08-02T17:16:51.710Z,58.36
2022-08-02T17:18:10.110Z,58.36
2022-08-02T17:19:28.449Z,58.36
2022-08-02T17:20:51.631Z,58.36
2022-08-02T17:22:10.215Z,58.36
2022-08-02T17:24:03.920Z,58.36
2022-08-02T17:24:50.056Z,58.36
2022-08-02T17:26:08.664Z,58.36
2022-08-02T17:27:27.003Z,58.36
2022-08-02T17:29:16.534Z,58.36
2022-08-02T17:30:10.908Z,58.26
2022-08-02T17:31:30.214Z,58.36